Airfield :
LOGIN :

Register | Disclaimer

   EN    FR    IT 

 










Legend :    VFR   Marginal VFR   IFR   Intensive IFR   Very Intensive IFR
Visi :
Ceiling :
>= 8 km
>= 3000ft
5 to 8 km
1000 to 3000 ft
1500m to 5 km
500 to 1000 ft
800 to 1500m
200 to 500 ft
< 800m
< 200 ft
Symbols :   Thunderstorms  Fog  Heavy snow  Heavy precipitations  Wind > 20 kt
SIGMETs :     Misc.  Thunderstorms  Icing  Turbulence  Mountain Waves  Volcanic Ashes






- Airport Elevation : 52 ft
- IATA code : IOM


EGNS - Isle of Man

CURRENT METAR :
  • 201820Z 01006KT 330V040 9999 BKN038 10/04 Q1019 NOSIG

EXPIRED METARs :
  • 201750Z VRB03KT 9999 BKN038 10/04 Q1019 NOSIG
  • 201720Z VRB03KT 9999 BKN038 10/04 Q1019 NOSIG
  • 201650Z VRB03KT 9999 BKN036 10/05 Q1018 NOSIG
  • 201620Z 03005KT 350V060 9999 BKN034 11/04 Q1018 NOSIG
  • 201550Z 03007KT 360V070 9999 BKN035 11/04 Q1018 NOSIG

TAF TAF EGNS
Valid from the 20 at 18:00 until the 20 at 21:00 UTC


201700Z 2018/2021 01012KT 9999 BKN035



MET'MAP, your aeronautical weather chart ! - Copyright ORBIFLY December 2007 - Disclaimer

ORBIFLY MET'MAP TEAM :

Programming & Development : Alexandra Zaïnal
Concept & Development : Baudouin d'Aumeries
Co-Development & Prog : Marc-Olivier Méhu
Technical & hardware support : Manuel Goepfert

Contact : metmap@orbifly.com




SOURCES & CREDITS :

   NOAA